^^
Saratoga-Weather Station Historical Data
Daily Summary for February 4, 2021 Units:  Both    English   Metric
Daily Weekly Monthly Yearly Custom
  High: Low: Average:
Temperature: 51.4 °F /  10.8 °C 41.2 °F /  5.1 °C 45.7 °F /  7.6 °C
Dew Point: 45.9 °F /  7.7 °C 39.6 °F /  4.2 °C 42.8 °F /  6 °C
Humidity: 96% 80% 90%
Wind Speed: 8.9mph /  14.3km/h - 0.8mph /  1.3km/h
Wind Gust: 14mph /  22.5km/h - -
Wind- - SSE
Pressure: 30 in /  1014.9 hPa 29.8 in /  1008.5 hPa -
Precipitation: 0 in /  0.0 mm    
Historical Graphs
 
 
Tabular Data for February 4, 2021
Time Temperature Dew Point Pressure Wind Wind Speed Wind Gust Humidity Rainfall Rate (Hourly) solar
00:02 46.4 °F /  8 °C 42.4 °F /  5.8 °C 29.8in /  1008.5hPa West 2.9mph /  4.7km/h 9mph /  14.5km/h 86% 0in /  0.0mm 0 W/m2
00:07 46.2 °F /  7.9 °C 42.3 °F /  5.7 °C 29.8in /  1008.5hPa NW 4.9mph /  7.9km/h 13mph /  20.9km/h 86% 0in /  0.0mm 0 W/m2
00:12 46.2 °F /  7.9 °C 42.3 °F /  5.7 °C 29.8in /  1008.5hPa WNW 2.9mph /  4.7km/h 14mph /  22.5km/h 86% 0in /  0.0mm 0 W/m2
00:17 46.2 °F /  7.9 °C 42.3 °F /  5.7 °C 29.8in /  1008.8hPa NW 8.9mph /  14.3km/h 10mph /  16.1km/h 86% 0in /  0.0mm 0 W/m2
00:22 46.2 °F /  7.9 °C 42.3 °F /  5.7 °C 29.8in /  1008.8hPa West 0.9mph /  1.4km/h 14mph /  22.5km/h 86% 0in /  0.0mm 0 W/m2
00:27 46 °F /  7.8 °C 42.1 °F /  5.6 °C 29.8in /  1008.8hPa WSW 2.9mph /  4.7km/h 10mph /  16.1km/h 86% 0in /  0.0mm 0 W/m2
00:32 46 °F /  7.8 °C 42.1 °F /  5.6 °C 29.8in /  1009.1hPa West 0.9mph /  1.4km/h 8mph /  12.9km/h 86% 0in /  0.0mm 0 W/m2
00:37 46 °F /  7.8 °C 42.1 °F /  5.6 °C 29.8in /  1009.1hPa WSW 6.9mph /  11.1km/h 7mph /  11.3km/h 86% 0in /  0.0mm 0 W/m2
00:42 45.9 °F /  7.7 °C 42.3 °F /  5.7 °C 29.8in /  1009.1hPa NW 2.9mph /  4.7km/h 8mph /  12.9km/h 87% 0in /  0.0mm 0 W/m2
00:47 45.9 °F /  7.7 °C 42.3 °F /  5.7 °C 29.8in /  1009.1hPa WSW 0.9mph /  1.4km/h 4mph /  6.4km/h 87% 0in /  0.0mm 0 W/m2
00:52 45.7 °F /  7.6 °C 42.1 °F /  5.6 °C 29.8in /  1009.1hPa WSW 4mph /  6.4km/h 7mph /  11.3km/h 87% 0in /  0.0mm 0 W/m2
00:57 45.7 °F /  7.6 °C 42.1 °F /  5.6 °C 29.8in /  1009.5hPa WNW 2.9mph /  4.7km/h 3mph /  4.8km/h 87% 0in /  0.0mm 0 W/m2
01:02 45.5 °F /  7.5 °C 41.9 °F /  5.5 °C 29.8in /  1009.5hPa WSW 4mph /  6.4km/h 9mph /  14.5km/h 87% 0in /  0.0mm 0 W/m2
01:07 45.3 °F /  7.4 °C 41.7 °F /  5.4 °C 29.8in /  1009.5hPa WSW 6.9mph /  11.1km/h 7mph /  11.3km/h 87% 0in /  0.0mm 0 W/m2
01:12 45.1 °F /  7.3 °C 41.5 °F /  5.3 °C 29.8in /  1009.8hPa West 2.9mph /  4.7km/h 9mph /  14.5km/h 87% 0in /  0.0mm 0 W/m2
01:17 45.1 °F /  7.3 °C 41.5 °F /  5.3 °C 29.8in /  1009.8hPa WSW 2.9mph /  4.7km/h 9mph /  14.5km/h 87% 0in /  0.0mm 0 W/m2
01:22 45.3 °F /  7.4 °C 41.4 °F /  5.2 °C 29.8in /  1009.8hPa WNW 4mph /  6.4km/h 6mph /  9.7km/h 86% 0in /  0.0mm 0 W/m2
01:27 45.3 °F /  7.4 °C 41.4 °F /  5.2 °C 29.8in /  1010.2hPa WSW 2mph /  3.2km/h 8mph /  12.9km/h 86% 0in /  0.0mm 0 W/m2
01:32 45.5 °F /  7.5 °C 41.5 °F /  5.3 °C 29.8in /  1010.2hPa WSW 0.9mph /  1.4km/h 6mph /  9.7km/h 86% 0in /  0.0mm 0 W/m2
01:37 45.5 °F /  7.5 °C 41.5 °F /  5.3 °C 29.8in /  1010.2hPa NW 2.9mph /  4.7km/h 3mph /  4.8km/h 86% 0in /  0.0mm 0 W/m2
01:42 45.5 °F /  7.5 °C 41.2 °F /  5.1 °C 29.8in /  1010.2hPa Calm   2mph /  3.2km/h 85% 0in /  0.0mm 0 W/m2
01:47 45.5 °F /  7.5 °C 41.5 °F /  5.3 °C 29.8in /  1010.2hPa NW 2mph /  3.2km/h 4mph /  6.4km/h 86% 0in /  0.0mm 0 W/m2
01:52 45.3 °F /  7.4 °C 41.4 °F /  5.2 °C 29.8in /  1010.5hPa Calm   3mph /  4.8km/h 86% 0in /  0.0mm 0 W/m2
01:57 45.3 °F /  7.4 °C 41.4 °F /  5.2 °C 29.8in /  1010.5hPa WNW 0.9mph /  1.4km/h 2mph /  3.2km/h 86% 0in /  0.0mm 0 W/m2
02:02 45.3 °F /  7.4 °C 41.4 °F /  5.2 °C 29.8in /  1010.5hPa West 0.9mph /  1.4km/h 6mph /  9.7km/h 86% 0in /  0.0mm 0 W/m2
02:07 45.3 °F /  7.4 °C 41.7 °F /  5.4 °C 29.8in /  1010.5hPa Calm   1mph /  1.6km/h 87% 0in /  0.0mm 0 W/m2
02:12 45.1 °F /  7.3 °C 41.5 °F /  5.3 °C 29.8in /  1010.5hPa NNW 2mph /  3.2km/h 2mph /  3.2km/h 87% 0in /  0.0mm 0 W/m2
02:17 45.1 °F /  7.3 °C 41.5 °F /  5.3 °C 29.9in /  1010.8hPa Calm   3mph /  4.8km/h 87% 0in /  0.0mm 0 W/m2
02:22 45 °F /  7.2 °C 41.5 °F /  5.3 °C 29.9in /  1010.8hPa WSW 2mph /  3.2km/h 2mph /  3.2km/h 88% 0in /  0.0mm 0 W/m2
02:27 44.8 °F /  7.1 °C 41.4 °F /  5.2 °C 29.9in /  1010.8hPa Calm   1mph /  1.6km/h 88% 0in /  0.0mm 0 W/m2
02:33 44.4 °F /  6.9 °C 41.2 °F /  5.1 °C 29.9in /  1010.8hPa West 2.9mph /  4.7km/h 3mph /  4.8km/h 88% 0in /  0.0mm 0 W/m2
02:38 44.2 °F /  6.8 °C 41.2 °F /  5.1 °C 29.9in /  1011.2hPa Calm   2mph /  3.2km/h 89% 0in /  0.0mm 0 W/m2
02:43 44.2 °F /  6.8 °C 41.2 °F /  5.1 °C 29.9in /  1010.8hPa SSW 0.9mph /  1.4km/h 2mph /  3.2km/h 89% 0in /  0.0mm 0 W/m2
02:48 44.2 °F /  6.8 °C 41.5 °F /  5.3 °C 29.9in /  1011.2hPa South 0.9mph /  1.4km/h 2mph /  3.2km/h 90% 0in /  0.0mm 0 W/m2
02:53 44.1 °F /  6.7 °C 41.4 °F /  5.2 °C 29.9in /  1011.2hPa Calm     90% 0in /  0.0mm 0 W/m2
02:58 44.1 °F /  6.7 °C 41.4 °F /  5.2 °C 29.9in /  1011.2hPa SSE 0.9mph /  1.4km/h 4mph /  6.4km/h 90% 0in /  0.0mm 0 W/m2
03:03 44.1 °F /  6.7 °C 41.4 °F /  5.2 °C 29.9in /  1011.2hPa West 2mph /  3.2km/h 4mph /  6.4km/h 90% 0in /  0.0mm 0 W/m2
03:08 44.1 °F /  6.7 °C 41.4 °F /  5.2 °C 29.9in /  1011.2hPa WNW 2mph /  3.2km/h 7mph /  11.3km/h 90% 0in /  0.0mm 0 W/m2
03:13 44.1 °F /  6.7 °C 41.4 °F /  5.2 °C 29.9in /  1011.2hPa SW 0.9mph /  1.4km/h 2mph /  3.2km/h 90% 0in /  0.0mm 0 W/m2
03:18 43.9 °F /  6.6 °C 41.2 °F /  5.1 °C 29.9in /  1011.2hPa Calm   2mph /  3.2km/h 90% 0in /  0.0mm 0 W/m2
03:23 43.9 °F /  6.6 °C 41.2 °F /  5.1 °C 29.9in /  1011.2hPa Calm   2mph /  3.2km/h 90% 0in /  0.0mm 0 W/m2
03:28 43.7 °F /  6.5 °C 41 °F /  5 °C 29.9in /  1011.2hPa South 2mph /  3.2km/h 2mph /  3.2km/h 90% 0in /  0.0mm 0 W/m2
03:33 43.7 °F /  6.5 °C 41.2 °F /  5.1 °C 29.9in /  1011.5hPa Calm   2mph /  3.2km/h 91% 0in /  0.0mm 0 W/m2
03:38 43.9 °F /  6.6 °C 41.4 °F /  5.2 °C 29.9in /  1011.5hPa SE 2mph /  3.2km/h 2mph /  3.2km/h 91% 0in /  0.0mm 0 W/m2
03:43 43.9 °F /  6.6 °C 41.4 °F /  5.2 °C 29.9in /  1011.5hPa WNW 2mph /  3.2km/h 4mph /  6.4km/h 91% 0in /  0.0mm 0 W/m2
03:48 43.9 °F /  6.6 °C 41.4 °F /  5.2 °C 29.9in /  1011.5hPa Calm   1mph /  1.6km/h 91% 0in /  0.0mm 0 W/m2
03:53 43.9 °F /  6.6 °C 41.4 °F /  5.2 °C 29.9in /  1011.9hPa Calm   1mph /  1.6km/h 91% 0in /  0.0mm 0 W/m2
03:58 43.9 °F /  6.6 °C 41.4 °F /  5.2 °C 29.9in /  1011.5hPa Calm     91% 0in /  0.0mm 0 W/m2
04:03 43.7 °F /  6.5 °C 41.2 °F /  5.1 °C 29.9in /  1011.9hPa Calm     91% 0in /  0.0mm 0 W/m2
04:08 43.9 °F /  6.6 °C 41.4 °F /  5.2 °C 29.9in /  1011.9hPa WNW 0.9mph /  1.4km/h 2mph /  3.2km/h 91% 0in /  0.0mm 0 W/m2
04:13 43.9 °F /  6.6 °C 41.4 °F /  5.2 °C 29.9in /  1011.9hPa Calm   7mph /  11.3km/h 91% 0in /  0.0mm 0 W/m2
04:18 43.9 °F /  6.6 °C 41.4 °F /  5.2 °C 29.9in /  1011.9hPa North 2mph /  3.2km/h 2mph /  3.2km/h 91% 0in /  0.0mm 0 W/m2
04:23 43.9 °F /  6.6 °C 41.4 °F /  5.2 °C 29.9in /  1011.9hPa SSW 0.9mph /  1.4km/h 7mph /  11.3km/h 91% 0in /  0.0mm 0 W/m2
04:28 43.7 °F /  6.5 °C 41 °F /  5 °C 29.9in /  1011.9hPa Calm   2mph /  3.2km/h 90% 0in /  0.0mm 0 W/m2
04:33 43.5 °F /  6.4 °C 41 °F /  5 °C 29.9in /  1011.9hPa Calm   1mph /  1.6km/h 91% 0in /  0.0mm 0 W/m2
04:38 43.3 °F /  6.3 °C 40.8 °F /  4.9 °C 29.9in /  1011.9hPa Calm   1mph /  1.6km/h 91% 0in /  0.0mm 0 W/m2
04:43 43.3 °F /  6.3 °C 40.8 °F /  4.9 °C 29.9in /  1011.9hPa Calm     91% 0in /  0.0mm 0 W/m2
04:48 43.2 °F /  6.2 °C 40.6 °F /  4.8 °C 29.9in /  1012.2hPa SW 0.9mph /  1.4km/h 2mph /  3.2km/h 91% 0in /  0.0mm 0 W/m2
04:53 43.2 °F /  6.2 °C 41 °F /  5 °C 29.9in /  1012.2hPa Calm   2mph /  3.2km/h 92% 0in /  0.0mm 0 W/m2
04:58 43.2 °F /  6.2 °C 41 °F /  5 °C 29.9in /  1011.9hPa West 2mph /  3.2km/h 3mph /  4.8km/h 92% 0in /  0.0mm 0 W/m2
05:03 43.2 °F /  6.2 °C 41 °F /  5 °C 29.9in /  1012.2hPa Calm   3mph /  4.8km/h 92% 0in /  0.0mm 0 W/m2
05:08 43.2 °F /  6.2 °C 41 °F /  5 °C 29.9in /  1012.2hPa Calm   4mph /  6.4km/h 92% 0in /  0.0mm 0 W/m2
05:13 43.2 °F /  6.2 °C 41 °F /  5 °C 29.9in /  1012.2hPa SW 0.9mph /  1.4km/h 3mph /  4.8km/h 92% 0in /  0.0mm 0 W/m2
05:18 43 °F /  6.1 °C 40.8 °F /  4.9 °C 29.9in /  1012.2hPa Calm   4mph /  6.4km/h 92% 0in /  0.0mm 0 W/m2
05:23 43 °F /  6.1 °C 40.8 °F /  4.9 °C 29.9in /  1012.2hPa Calm     92% 0in /  0.0mm 0 W/m2
05:28 42.8 °F /  6 °C 40.6 °F /  4.8 °C 29.9in /  1012.2hPa Calm   2mph /  3.2km/h 92% 0in /  0.0mm 0 W/m2
05:33 42.6 °F /  5.9 °C 40.5 °F /  4.7 °C 29.9in /  1012.5hPa Calm   1mph /  1.6km/h 92% 0in /  0.0mm 0 W/m2
05:38 42.4 °F /  5.8 °C 40.3 °F /  4.6 °C 29.9in /  1012.5hPa Calm   2mph /  3.2km/h 92% 0in /  0.0mm 0 W/m2
05:43 42.3 °F /  5.7 °C 40.1 °F /  4.5 °C 29.9in /  1012.5hPa ENE 2mph /  3.2km/h 2mph /  3.2km/h 92% 0in /  0.0mm 0 W/m2
05:48 42.3 °F /  5.7 °C 40.5 °F /  4.7 °C 29.9in /  1012.5hPa Calm   2mph /  3.2km/h 93% 0in /  0.0mm 0 W/m2
05:53 42.1 °F /  5.6 °C 40.3 °F /  4.6 °C 29.9in /  1012.5hPa SE 0.9mph /  1.4km/h 2mph /  3.2km/h 93% 0in /  0.0mm 0 W/m2
05:58 41.9 °F /  5.5 °C 40.1 °F /  4.5 °C 29.9in /  1012.5hPa Calm   2mph /  3.2km/h 93% 0in /  0.0mm 0 W/m2
06:03 41.7 °F /  5.4 °C 39.9 °F /  4.4 °C 29.9in /  1012.5hPa Calm   1mph /  1.6km/h 93% 0in /  0.0mm 0 W/m2
06:08 41.5 °F /  5.3 °C 39.7 °F /  4.3 °C 29.9in /  1012.5hPa SSE 0.9mph /  1.4km/h 2mph /  3.2km/h 93% 0in /  0.0mm 0 W/m2
06:13 41.7 °F /  5.4 °C 40.1 °F /  4.5 °C 29.9in /  1012.5hPa East 0.9mph /  1.4km/h 2mph /  3.2km/h 94% 0in /  0.0mm 0 W/m2
06:18 41.5 °F /  5.3 °C 39.9 °F /  4.4 °C 29.9in /  1012.5hPa Calm     94% 0in /  0.0mm 0 W/m2
06:23 41.4 °F /  5.2 °C 39.7 °F /  4.3 °C 29.9in /  1012.9hPa Calm   2mph /  3.2km/h 94% 0in /  0.0mm 0 W/m2
06:28 41.2 °F /  5.1 °C 39.6 °F /  4.2 °C 29.9in /  1012.9hPa Calm   1mph /  1.6km/h 94% 0in /  0.0mm 0 W/m2
06:33 41.4 °F /  5.2 °C 39.7 °F /  4.3 °C 29.9in /  1012.9hPa SW 0.9mph /  1.4km/h 3mph /  4.8km/h 94% 0in /  0.0mm 0 W/m2
06:38 41.4 °F /  5.2 °C 40.1 °F /  4.5 °C 29.9in /  1012.9hPa Calm   2mph /  3.2km/h 95% 0in /  0.0mm 0 W/m2
06:43 41.4 °F /  5.2 °C 40.1 °F /  4.5 °C 29.9in /  1012.9hPa Calm   3mph /  4.8km/h 95% 0in /  0.0mm 0 W/m2
06:48 41.4 °F /  5.2 °C 40.1 °F /  4.5 °C 29.9in /  1012.9hPa WNW 0.9mph /  1.4km/h 2mph /  3.2km/h 95% 0in /  0.0mm 0 W/m2
06:53 41.7 °F /  5.4 °C 40.5 °F /  4.7 °C 29.9in /  1012.9hPa WSW 2mph /  3.2km/h 8mph /  12.9km/h 95% 0in /  0.0mm 0 W/m2
06:58 41.7 °F /  5.4 °C 40.5 °F /  4.7 °C 29.9in /  1012.9hPa Calm   4mph /  6.4km/h 95% 0in /  0.0mm 0 W/m2
07:03 42.1 °F /  5.6 °C 40.8 °F /  4.9 °C 29.9in /  1012.9hPa Calm   8mph /  12.9km/h 95% 0in /  0.0mm 0 W/m2
07:08 42.1 °F /  5.6 °C 40.8 °F /  4.9 °C 29.9in /  1012.9hPa West 0.9mph /  1.4km/h 2mph /  3.2km/h 95% 0in /  0.0mm 0 W/m2
07:13 42.3 °F /  5.7 °C 41 °F /  5 °C 29.9in /  1013.2hPa Calm   3mph /  4.8km/h 95% 0in /  0.0mm 0 W/m2
07:18 42.3 °F /  5.7 °C 41 °F /  5 °C 29.9in /  1013.2hPa Calm     95% 0in /  0.0mm 0 W/m2
07:23 42.3 °F /  5.7 °C 41 °F /  5 °C 29.9in /  1013.2hPa Calm     95% 0in /  0.0mm 0 W/m2
07:28 42.3 °F /  5.7 °C 41 °F /  5 °C 29.9in /  1013.2hPa WNW 0.9mph /  1.4km/h 3mph /  4.8km/h 95% 0in /  0.0mm 0 W/m2
07:33 42.4 °F /  5.8 °C 41.2 °F /  5.1 °C 29.9in /  1013.2hPa Calm     95% 0in /  0.0mm 0 W/m2
07:38 42.4 °F /  5.8 °C 41.2 °F /  5.1 °C 29.9in /  1013.2hPa Calm   1mph /  1.6km/h 95% 0in /  0.0mm 0 W/m2
07:43 42.4 °F /  5.8 °C 41.2 °F /  5.1 °C 29.9in /  1013.2hPa Calm     95% 0in /  0.0mm 0 W/m2
07:48 42.3 °F /  5.7 °C 40.6 °F /  4.8 °C 29.9in /  1013.5hPa Calm     94% 0in /  0.0mm 0 W/m2
07:53 42.1 °F /  5.6 °C 40.5 °F /  4.7 °C 29.9in /  1013.5hPa Calm     94% 0in /  0.0mm 0 W/m2
07:58 42.1 °F /  5.6 °C 40.8 °F /  4.9 °C 29.9in /  1013.5hPa Calm     95% 0in /  0.0mm 0 W/m2
08:03 42.1 °F /  5.6 °C 40.8 °F /  4.9 °C 29.9in /  1013.5hPa Calm     95% 0in /  0.0mm 0 W/m2
08:08 41.9 °F /  5.5 °C 40.6 °F /  4.8 °C 29.9in /  1013.5hPa Calm     95% 0in /  0.0mm 9 W/m2
08:13 41.7 °F /  5.4 °C 40.5 °F /  4.7 °C 29.9in /  1013.5hPa Calm     95% 0in /  0.0mm 9 W/m2
08:18 41.7 °F /  5.4 °C 40.5 °F /  4.7 °C 29.9in /  1013.5hPa Calm     95% 0in /  0.0mm 12 W/m2
08:23 41.7 °F /  5.4 °C 40.5 °F /  4.7 °C 29.9in /  1013.9hPa Calm     95% 0in /  0.0mm 18 W/m2
08:28 41.7 °F /  5.4 °C 40.5 °F /  4.7 °C 29.9in /  1013.9hPa Calm     95% 0in /  0.0mm 19 W/m2
08:33 41.9 °F /  5.5 °C 40.6 °F /  4.8 °C 29.9in /  1013.9hPa Calm     95% 0in /  0.0mm 26 W/m2
08:38 41.9 °F /  5.5 °C 40.6 °F /  4.8 °C 29.9in /  1013.9hPa Calm     95% 0in /  0.0mm 25 W/m2
08:43 42.1 °F /  5.6 °C 40.8 °F /  4.9 °C 29.9in /  1013.9hPa Calm     95% 0in /  0.0mm 26 W/m2
08:48 42.1 °F /  5.6 °C 40.8 °F /  4.9 °C 29.9in /  1013.9hPa Calm     95% 0in /  0.0mm 32 W/m2
08:53 42.1 °F /  5.6 °C 40.8 °F /  4.9 °C 29.9in /  1013.9hPa Calm     95% 0in /  0.0mm 30 W/m2
08:58 41.9 °F /  5.5 °C 40.6 °F /  4.8 °C 29.9in /  1013.9hPa Calm     95% 0in /  0.0mm 46 W/m2
09:03 41.9 °F /  5.5 °C 40.6 °F /  4.8 °C 29.9in /  1013.9hPa Calm     95% 0in /  0.0mm 46 W/m2
09:08 41.7 °F /  5.4 °C 40.5 °F /  4.7 °C 29.9in /  1013.9hPa Calm     95% 0in /  0.0mm 46 W/m2
09:13 41.7 °F /  5.4 °C 40.6 °F /  4.8 °C 29.9in /  1013.9hPa Calm     96% 0in /  0.0mm 47 W/m2
09:18 41.7 °F /  5.4 °C 40.6 °F /  4.8 °C 29.9in /  1013.9hPa Calm     96% 0in /  0.0mm 62 W/m2
09:23 41.7 °F /  5.4 °C 40.6 °F /  4.8 °C 29.9in /  1013.9hPa Calm     96% 0in /  0.0mm 74 W/m2
09:28 42.1 °F /  5.6 °C 41 °F /  5 °C 29.9in /  1013.9hPa North 0.9mph /  1.4km/h 1mph /  1.6km/h 96% 0in /  0.0mm 118 W/m2
09:33 42.3 °F /  5.7 °C 41.2 °F /  5.1 °C 29.9in /  1013.9hPa ENE 2mph /  3.2km/h 2mph /  3.2km/h 96% 0in /  0.0mm 109 W/m2
09:38 42.4 °F /  5.8 °C 41.4 °F /  5.2 °C 30in /  1014.2hPa ENE 0.9mph /  1.4km/h 3mph /  4.8km/h 96% 0in /  0.0mm 81 W/m2
09:43 42.6 °F /  5.9 °C 41.5 °F /  5.3 °C 30in /  1014.2hPa ENE 0.9mph /  1.4km/h 2mph /  3.2km/h 96% 0in /  0.0mm 79 W/m2
09:48 42.6 °F /  5.9 °C 41.5 °F /  5.3 °C 30in /  1014.2hPa Calm   1mph /  1.6km/h 96% 0in /  0.0mm 65 W/m2
09:53 43 °F /  6.1 °C 41.9 °F /  5.5 °C 30in /  1014.2hPa Calm   2mph /  3.2km/h 96% 0in /  0.0mm 86 W/m2
09:58 43 °F /  6.1 °C 41.9 °F /  5.5 °C 30in /  1014.2hPa Calm   1mph /  1.6km/h 96% 0in /  0.0mm 83 W/m2
10:03 43.2 °F /  6.2 °C 42.1 °F /  5.6 °C 30in /  1014.2hPa Calm   2mph /  3.2km/h 96% 0in /  0.0mm 91 W/m2
10:08 43.3 °F /  6.3 °C 42.1 °F /  5.6 °C 30in /  1014.2hPa Calm   2mph /  3.2km/h 95% 0in /  0.0mm 90 W/m2
10:13 43.7 °F /  6.5 °C 42.4 °F /  5.8 °C 30in /  1014.2hPa ENE 0.9mph /  1.4km/h 1mph /  1.6km/h 95% 0in /  0.0mm 109 W/m2
10:18 43.9 °F /  6.6 °C 42.6 °F /  5.9 °C 30in /  1014.2hPa ESE 2mph /  3.2km/h 2mph /  3.2km/h 95% 0in /  0.0mm 137 W/m2
10:23 44.2 °F /  6.8 °C 43 °F /  6.1 °C 30in /  1014.6hPa Calm   2mph /  3.2km/h 95% 0in /  0.0mm 114 W/m2
10:29 44.6 °F /  7 °C 43.3 °F /  6.3 °C 30in /  1014.2hPa East 2mph /  3.2km/h 3mph /  4.8km/h 95% 0in /  0.0mm 142 W/m2
10:34 45 °F /  7.2 °C 43.7 °F /  6.5 °C 30in /  1014.6hPa ENE 2mph /  3.2km/h 2mph /  3.2km/h 95% 0in /  0.0mm 142 W/m2
10:39 45.1 °F /  7.3 °C 43.5 °F /  6.4 °C 30in /  1014.6hPa ENE 0.9mph /  1.4km/h 2mph /  3.2km/h 94% 0in /  0.0mm 139 W/m2
10:44 45.3 °F /  7.4 °C 43.7 °F /  6.5 °C 30in /  1014.6hPa ENE 2mph /  3.2km/h 2mph /  3.2km/h 94% 0in /  0.0mm 153 W/m2
10:49 45.7 °F /  7.6 °C 43.7 °F /  6.5 °C 30in /  1014.6hPa ENE 0.9mph /  1.4km/h 2mph /  3.2km/h 93% 0in /  0.0mm 144 W/m2
10:54 45.9 °F /  7.7 °C 43.9 °F /  6.6 °C 30in /  1014.6hPa ESE 0.9mph /  1.4km/h 2mph /  3.2km/h 93% 0in /  0.0mm 144 W/m2
10:59 46 °F /  7.8 °C 44.1 °F /  6.7 °C 30in /  1014.6hPa Calm   2mph /  3.2km/h 93% 0in /  0.0mm 135 W/m2
11:04 46.2 °F /  7.9 °C 44.2 °F /  6.8 °C 30in /  1014.6hPa East 2mph /  3.2km/h 3mph /  4.8km/h 93% 0in /  0.0mm 162 W/m2
11:09 46.4 °F /  8 °C 44.4 °F /  6.9 °C 30in /  1014.6hPa East 0.9mph /  1.4km/h 1mph /  1.6km/h 93% 0in /  0.0mm 202 W/m2
11:14 46.6 °F /  8.1 °C 44.4 °F /  6.9 °C 30in /  1014.6hPa Calm   3mph /  4.8km/h 92% 0in /  0.0mm 188 W/m2
11:19 46.9 °F /  8.3 °C 44.8 °F /  7.1 °C 30in /  1014.9hPa Calm   1mph /  1.6km/h 92% 0in /  0.0mm 230 W/m2
11:24 47.3 °F /  8.5 °C 44.8 °F /  7.1 °C 30in /  1014.6hPa ENE 2mph /  3.2km/h 3mph /  4.8km/h 91% 0in /  0.0mm 188 W/m2
11:29 47.5 °F /  8.6 °C 45 °F /  7.2 °C 30in /  1014.6hPa ESE 2mph /  3.2km/h 3mph /  4.8km/h 91% 0in /  0.0mm 246 W/m2
11:34 47.7 °F /  8.7 °C 45 °F /  7.2 °C 30in /  1014.6hPa East 0.9mph /  1.4km/h 3mph /  4.8km/h 90% 0in /  0.0mm 142 W/m2
11:39 47.8 °F /  8.8 °C 44.8 °F /  7.1 °C 30in /  1014.6hPa East 0.9mph /  1.4km/h 2mph /  3.2km/h 89% 0in /  0.0mm 125 W/m2
11:44 47.8 °F /  8.8 °C 44.8 °F /  7.1 °C 30in /  1014.6hPa East 0.9mph /  1.4km/h 3mph /  4.8km/h 89% 0in /  0.0mm 118 W/m2
11:49 47.8 °F /  8.8 °C 44.8 °F /  7.1 °C 30in /  1014.6hPa Calm     89% 0in /  0.0mm 114 W/m2
11:54 47.8 °F /  8.8 °C 44.4 °F /  6.9 °C 30in /  1014.6hPa Calm   1mph /  1.6km/h 88% 0in /  0.0mm 113 W/m2
11:59 48 °F /  8.9 °C 44.6 °F /  7 °C 30in /  1014.6hPa Calm   1mph /  1.6km/h 88% 0in /  0.0mm 127 W/m2
12:04 48.2 °F /  9 °C 44.8 °F /  7.1 °C 30in /  1014.6hPa SSE 2mph /  3.2km/h 3mph /  4.8km/h 88% 0in /  0.0mm 137 W/m2
12:09 48.4 °F /  9.1 °C 45 °F /  7.2 °C 30in /  1014.2hPa East 0.9mph /  1.4km/h 2mph /  3.2km/h 88% 0in /  0.0mm 141 W/m2
12:14 48.6 °F /  9.2 °C 45.1 °F /  7.3 °C 30in /  1014.6hPa Calm   2mph /  3.2km/h 88% 0in /  0.0mm 178 W/m2
12:19 48.6 °F /  9.2 °C 44.8 °F /  7.1 °C 30in /  1014.6hPa NE 0.9mph /  1.4km/h 2mph /  3.2km/h 87% 0in /  0.0mm 176 W/m2
12:24 48.7 °F /  9.3 °C 45 °F /  7.2 °C 30in /  1014.2hPa ENE 0.9mph /  1.4km/h 3mph /  4.8km/h 87% 0in /  0.0mm 197 W/m2
12:29 48.7 °F /  9.3 °C 45 °F /  7.2 °C 30in /  1014.2hPa Calm   1mph /  1.6km/h 87% 0in /  0.0mm 178 W/m2
12:34 48.9 °F /  9.4 °C 45.1 °F /  7.3 °C 30in /  1014.2hPa Calm   3mph /  4.8km/h 87% 0in /  0.0mm 162 W/m2
12:39 49.1 °F /  9.5 °C 45.3 °F /  7.4 °C 30in /  1014.2hPa Calm   2mph /  3.2km/h 87% 0in /  0.0mm 158 W/m2
12:44 49.3 °F /  9.6 °C 45.3 °F /  7.4 °C 30in /  1014.2hPa NNE 2mph /  3.2km/h 4mph /  6.4km/h 86% 0in /  0.0mm 172 W/m2
12:49 49.3 °F /  9.6 °C 45.3 °F /  7.4 °C 30in /  1014.2hPa ENE 0.9mph /  1.4km/h 2mph /  3.2km/h 86% 0in /  0.0mm 163 W/m2
12:54 49.5 °F /  9.7 °C 45.5 °F /  7.5 °C 30in /  1014.2hPa ENE 2.9mph /  4.7km/h 4mph /  6.4km/h 86% 0in /  0.0mm 179 W/m2
12:59 49.6 °F /  9.8 °C 45.7 °F /  7.6 °C 29.9in /  1013.9hPa Calm     86% 0in /  0.0mm 190 W/m2
13:04 49.8 °F /  9.9 °C 45.5 °F /  7.5 °C 29.9in /  1013.9hPa NE 2.9mph /  4.7km/h 4mph /  6.4km/h 85% 0in /  0.0mm 171 W/m2
13:09 49.8 °F /  9.9 °C 45.5 °F /  7.5 °C 29.9in /  1013.9hPa ENE 2mph /  3.2km/h 4mph /  6.4km/h 85% 0in /  0.0mm 142 W/m2
13:14 49.8 °F /  9.9 °C 45.5 °F /  7.5 °C 29.9in /  1013.9hPa ENE 0.9mph /  1.4km/h 3mph /  4.8km/h 85% 0in /  0.0mm 139 W/m2
13:19 50 °F /  10 °C 45.3 °F /  7.4 °C 29.9in /  1013.9hPa East 0.9mph /  1.4km/h 3mph /  4.8km/h 84% 0in /  0.0mm 155 W/m2
13:24 50.2 °F /  10.1 °C 45.9 °F /  7.7 °C 29.9in /  1013.9hPa Calm   1mph /  1.6km/h 85% 0in /  0.0mm 134 W/m2
13:29 50.2 °F /  10.1 °C 45.5 °F /  7.5 °C 29.9in /  1013.5hPa ENE 2mph /  3.2km/h 5mph /  8km/h 84% 0in /  0.0mm 171 W/m2
13:34 50.4 °F /  10.2 °C 45.7 °F /  7.6 °C 29.9in /  1013.5hPa ENE 0.9mph /  1.4km/h 3mph /  4.8km/h 84% 0in /  0.0mm 186 W/m2
13:39 50.4 °F /  10.2 °C 45.7 °F /  7.6 °C 29.9in /  1013.5hPa East 0.9mph /  1.4km/h 2mph /  3.2km/h 84% 0in /  0.0mm 160 W/m2
13:44 50.4 °F /  10.2 °C 45.3 °F /  7.4 °C 29.9in /  1013.5hPa East 2mph /  3.2km/h 2mph /  3.2km/h 83% 0in /  0.0mm 146 W/m2
13:49 50.5 °F /  10.3 °C 45.5 °F /  7.5 °C 29.9in /  1013.5hPa East 0.9mph /  1.4km/h 4mph /  6.4km/h 83% 0in /  0.0mm 149 W/m2
13:54 50.5 °F /  10.3 °C 45.3 °F /  7.4 °C 29.9in /  1013.2hPa East 2.9mph /  4.7km/h 6mph /  9.7km/h 82% 0in /  0.0mm 181 W/m2
13:59 50.5 °F /  10.3 °C 45.3 °F /  7.4 °C 29.9in /  1013.5hPa East 0.9mph /  1.4km/h 2mph /  3.2km/h 82% 0in /  0.0mm 193 W/m2
14:04 50.7 °F /  10.4 °C 45.7 °F /  7.6 °C 29.9in /  1013.2hPa East 2.9mph /  4.7km/h 3mph /  4.8km/h 83% 0in /  0.0mm 197 W/m2
14:09 50.9 °F /  10.5 °C 45.7 °F /  7.6 °C 29.9in /  1013.2hPa SE 0.9mph /  1.4km/h 1mph /  1.6km/h 82% 0in /  0.0mm 171 W/m2
14:14 51.1 °F /  10.6 °C 45.5 °F /  7.5 °C 29.9in /  1013.2hPa East 2.9mph /  4.7km/h 4mph /  6.4km/h 81% 0in /  0.0mm 139 W/m2
14:19 51.1 °F /  10.6 °C 45.5 °F /  7.5 °C 29.9in /  1013.2hPa ENE 0.9mph /  1.4km/h 4mph /  6.4km/h 81% 0in /  0.0mm 153 W/m2
14:24 51.1 °F /  10.6 °C 45.1 °F /  7.3 °C 29.9in /  1013.2hPa SE 2mph /  3.2km/h 4mph /  6.4km/h 80% 0in /  0.0mm 188 W/m2
14:29 51.1 °F /  10.6 °C 45.5 °F /  7.5 °C 29.9in /  1013.2hPa NE 0.9mph /  1.4km/h 3mph /  4.8km/h 81% 0in /  0.0mm 197 W/m2
14:34 51.3 °F /  10.7 °C 45.7 °F /  7.6 °C 29.9in /  1013.2hPa East 2mph /  3.2km/h 2mph /  3.2km/h 81% 0in /  0.0mm 165 W/m2
14:39 51.4 °F /  10.8 °C 45.5 °F /  7.5 °C 29.9in /  1013.2hPa ESE 2mph /  3.2km/h 4mph /  6.4km/h 80% 0in /  0.0mm 141 W/m2
14:44 51.4 °F /  10.8 °C 45.5 °F /  7.5 °C 29.9in /  1013.2hPa SE 2mph /  3.2km/h 4mph /  6.4km/h 80% 0in /  0.0mm 135 W/m2
14:49 51.3 °F /  10.7 °C 45.3 °F /  7.4 °C 29.9in /  1013.2hPa NE 0.9mph /  1.4km/h 3mph /  4.8km/h 80% 0in /  0.0mm 128 W/m2
14:54 51.3 °F /  10.7 °C 45.7 °F /  7.6 °C 29.9in /  1013.2hPa Calm   4mph /  6.4km/h 81% 0in /  0.0mm 120 W/m2
14:59 51.3 °F /  10.7 °C 45.7 °F /  7.6 °C 29.9in /  1013.2hPa ESE 0.9mph /  1.4km/h 3mph /  4.8km/h 81% 0in /  0.0mm 113 W/m2
15:04 51.1 °F /  10.6 °C 45.5 °F /  7.5 °C 29.9in /  1012.9hPa NE 0.9mph /  1.4km/h 4mph /  6.4km/h 81% 0in /  0.0mm 109 W/m2
15:09 51.1 °F /  10.6 °C 45.5 °F /  7.5 °C 29.9in /  1012.9hPa Calm   2mph /  3.2km/h 81% 0in /  0.0mm 95 W/m2
15:14 50.9 °F /  10.5 °C 45.3 °F /  7.4 °C 29.9in /  1012.9hPa East 2mph /  3.2km/h 2mph /  3.2km/h 81% 0in /  0.0mm 84 W/m2
15:19 50.9 °F /  10.5 °C 45.3 °F /  7.4 °C 29.9in /  1012.9hPa ESE 0.9mph /  1.4km/h 2mph /  3.2km/h 81% 0in /  0.0mm 79 W/m2
15:24 50.7 °F /  10.4 °C 44.8 °F /  7.1 °C 29.9in /  1012.9hPa ESE 2mph /  3.2km/h 2mph /  3.2km/h 80% 0in /  0.0mm 84 W/m2
15:29 50.7 °F /  10.4 °C 44.8 °F /  7.1 °C 29.9in /  1012.9hPa East 0.9mph /  1.4km/h 3mph /  4.8km/h 80% 0in /  0.0mm 91 W/m2
15:34 50.5 °F /  10.3 °C 44.6 °F /  7 °C 29.9in /  1012.9hPa Calm   2mph /  3.2km/h 80% 0in /  0.0mm 79 W/m2
15:39 50.5 °F /  10.3 °C 44.6 °F /  7 °C 29.9in /  1012.9hPa SE 0.9mph /  1.4km/h 3mph /  4.8km/h 80% 0in /  0.0mm 88 W/m2
15:44 50.5 °F /  10.3 °C 45 °F /  7.2 °C 29.9in /  1012.9hPa ESE 0.9mph /  1.4km/h 2mph /  3.2km/h 81% 0in /  0.0mm 84 W/m2
15:49 50.5 °F /  10.3 °C 45 °F /  7.2 °C 29.9in /  1012.9hPa ESE 0.9mph /  1.4km/h 3mph /  4.8km/h 81% 0in /  0.0mm 67 W/m2
15:54 50.5 °F /  10.3 °C 45 °F /  7.2 °C 29.9in /  1012.9hPa ESE 0.9mph /  1.4km/h 3mph /  4.8km/h 81% 0in /  0.0mm 58 W/m2
15:59 50.5 °F /  10.3 °C 45.3 °F /  7.4 °C 29.9in /  1012.9hPa East 2.9mph /  4.7km/h 3mph /  4.8km/h 82% 0in /  0.0mm 69 W/m2
16:04 50.4 °F /  10.2 °C 45.1 °F /  7.3 °C 29.9in /  1012.9hPa SE 2.9mph /  4.7km/h 3mph /  4.8km/h 82% 0in /  0.0mm 62 W/m2
16:09 50.4 °F /  10.2 °C 45.1 °F /  7.3 °C 29.9in /  1012.9hPa ESE 2mph /  3.2km/h 4mph /  6.4km/h 82% 0in /  0.0mm 53 W/m2
16:14 50.2 °F /  10.1 °C 45 °F /  7.2 °C 29.9in /  1012.9hPa ESE 0.9mph /  1.4km/h 4mph /  6.4km/h 82% 0in /  0.0mm 63 W/m2
16:19 50.2 °F /  10.1 °C 45 °F /  7.2 °C 29.9in /  1012.9hPa ESE 0.9mph /  1.4km/h 2mph /  3.2km/h 82% 0in /  0.0mm 58 W/m2
16:24 50.2 °F /  10.1 °C 45 °F /  7.2 °C 29.9in /  1012.9hPa East 2.9mph /  4.7km/h 4mph /  6.4km/h 82% 0in /  0.0mm 54 W/m2
16:29 50.2 °F /  10.1 °C 45 °F /  7.2 °C 29.9in /  1012.9hPa Calm   1mph /  1.6km/h 82% 0in /  0.0mm 54 W/m2
16:34 50.2 °F /  10.1 °C 45.1 °F /  7.3 °C 29.9in /  1012.9hPa Calm   4mph /  6.4km/h 83% 0in /  0.0mm 49 W/m2
16:39 50 °F /  10 °C 44.8 °F /  7.1 °C 29.9in /  1012.5hPa East 0.9mph /  1.4km/h 4mph /  6.4km/h 82% 0in /  0.0mm 39 W/m2
16:44 50 °F /  10 °C 45 °F /  7.2 °C 29.9in /  1012.9hPa Calm   2mph /  3.2km/h 83% 0in /  0.0mm 35 W/m2
16:49 49.8 °F /  9.9 °C 44.8 °F /  7.1 °C 29.9in /  1012.5hPa Calm   2mph /  3.2km/h 83% 0in /  0.0mm 30 W/m2
16:54 49.8 °F /  9.9 °C 44.8 °F /  7.1 °C 29.9in /  1012.5hPa East 2mph /  3.2km/h 3mph /  4.8km/h 83% 0in /  0.0mm 26 W/m2
16:59 49.6 °F /  9.8 °C 44.8 °F /  7.1 °C 29.9in /  1012.5hPa East 0.9mph /  1.4km/h 2mph /  3.2km/h 83% 0in /  0.0mm 18 W/m2
17:04 49.6 °F /  9.8 °C 45 °F /  7.2 °C 29.9in /  1012.5hPa ESE 0.9mph /  1.4km/h 4mph /  6.4km/h 84% 0in /  0.0mm 19 W/m2
17:09 49.5 °F /  9.7 °C 44.8 °F /  7.1 °C 29.9in /  1012.5hPa ESE 2mph /  3.2km/h 4mph /  6.4km/h 84% 0in /  0.0mm 16 W/m2
17:14 49.3 °F /  9.6 °C 44.6 °F /  7 °C 29.9in /  1012.5hPa East 2mph /  3.2km/h 3mph /  4.8km/h 84% 0in /  0.0mm 12 W/m2
17:19 49.3 °F /  9.6 °C 44.6 °F /  7 °C 29.9in /  1012.2hPa Calm   2mph /  3.2km/h 84% 0in /  0.0mm 9 W/m2
17:24 49.1 °F /  9.5 °C 44.8 °F /  7.1 °C 29.9in /  1012.2hPa Calm   1mph /  1.6km/h 85% 0in /  0.0mm 5 W/m2
17:29 48.7 °F /  9.3 °C 44.4 °F /  6.9 °C 29.9in /  1012.2hPa ENE 0.9mph /  1.4km/h 4mph /  6.4km/h 85% 0in /  0.0mm 5 W/m2
17:34 48.7 °F /  9.3 °C 44.4 °F /  6.9 °C 29.9in /  1012.2hPa SW 0.9mph /  1.4km/h 3mph /  4.8km/h 85% 0in /  0.0mm 0 W/m2
17:39 48.6 °F /  9.2 °C 44.6 °F /  7 °C 29.9in /  1012.5hPa ESE 2.9mph /  4.7km/h 4mph /  6.4km/h 86% 0in /  0.0mm 0 W/m2
17:44 48.4 °F /  9.1 °C 44.4 °F /  6.9 °C 29.9in /  1012.5hPa ESE 2mph /  3.2km/h 3mph /  4.8km/h 86% 0in /  0.0mm 0 W/m2
17:49 48.4 °F /  9.1 °C 44.4 °F /  6.9 °C 29.9in /  1012.5hPa Calm   1mph /  1.6km/h 86% 0in /  0.0mm 0 W/m2
17:54 48 °F /  8.9 °C 44.1 °F /  6.7 °C 29.9in /  1012.5hPa ESE 2mph /  3.2km/h 4mph /  6.4km/h 86% 0in /  0.0mm 0 W/m2
17:59 48 °F /  8.9 °C 44.1 °F /  6.7 °C 29.9in /  1012.2hPa ESE 2mph /  3.2km/h 2mph /  3.2km/h 86% 0in /  0.0mm 0 W/m2
18:04 48 °F /  8.9 °C 44.1 °F /  6.7 °C 29.9in /  1012.2hPa East 0.9mph /  1.4km/h 4mph /  6.4km/h 86% 0in /  0.0mm 0 W/m2
18:09 48 °F /  8.9 °C 44.1 °F /  6.7 °C 29.9in /  1012.2hPa ESE 0.9mph /  1.4km/h 2mph /  3.2km/h 86% 0in /  0.0mm 0 W/m2
18:14 47.8 °F /  8.8 °C 44.2 °F /  6.8 °C 29.9in /  1012.2hPa Calm   1mph /  1.6km/h 87% 0in /  0.0mm 0 W/m2
18:20 47.8 °F /  8.8 °C 44.2 °F /  6.8 °C 29.9in /  1012.2hPa Calm     87% 0in /  0.0mm 0 W/m2
18:25 47.7 °F /  8.7 °C 44.2 °F /  6.8 °C 29.9in /  1012.2hPa Calm     88% 0in /  0.0mm 0 W/m2
18:30 47.5 °F /  8.6 °C 44.1 °F /  6.7 °C 29.9in /  1012.5hPa ESE 0.9mph /  1.4km/h 2mph /  3.2km/h 88% 0in /  0.0mm 0 W/m2
18:35 47.1 °F /  8.4 °C 43.7 °F /  6.5 °C 29.9in /  1012.5hPa Calm     88% 0in /  0.0mm 0 W/m2
18:40 47.1 °F /  8.4 °C 44.1 °F /  6.7 °C 29.9in /  1012.5hPa Calm   2mph /  3.2km/h 89% 0in /  0.0mm 0 W/m2
18:45 46.9 °F /  8.3 °C 43.9 °F /  6.6 °C 29.9in /  1012.2hPa Calm     89% 0in /  0.0mm 0 W/m2
18:50 46.8 °F /  8.2 °C 43.7 °F /  6.5 °C 29.9in /  1012.2hPa Calm   1mph /  1.6km/h 89% 0in /  0.0mm 0 W/m2
18:55 46.8 °F /  8.2 °C 44.1 °F /  6.7 °C 29.9in /  1012.2hPa Calm     90% 0in /  0.0mm 0 W/m2
19:00 46.6 °F /  8.1 °C 43.9 °F /  6.6 °C 29.9in /  1012.2hPa Calm     90% 0in /  0.0mm 0 W/m2
19:05 46.4 °F /  8 °C 43.7 °F /  6.5 °C 29.9in /  1012.2hPa Calm     90% 0in /  0.0mm 0 W/m2
19:10 46.2 °F /  7.9 °C 43.5 °F /  6.4 °C 29.9in /  1012.2hPa Calm     90% 0in /  0.0mm 0 W/m2
19:15 46 °F /  7.8 °C 43.3 °F /  6.3 °C 29.9in /  1012.2hPa Calm     90% 0in /  0.0mm 0 W/m2
19:20 45.9 °F /  7.7 °C 43.3 °F /  6.3 °C 29.9in /  1012.2hPa Calm     91% 0in /  0.0mm 0 W/m2
19:25 45.9 °F /  7.7 °C 43.3 °F /  6.3 °C 29.9in /  1012.2hPa Calm     91% 0in /  0.0mm 0 W/m2
19:30 45.7 °F /  7.6 °C 43.2 °F /  6.2 °C 29.9in /  1012.2hPa Calm     91% 0in /  0.0mm 0 W/m2
19:35 45.5 °F /  7.5 °C 43 °F /  6.1 °C 29.9in /  1012.2hPa Calm     91% 0in /  0.0mm 0 W/m2
19:40 45.3 °F /  7.4 °C 42.8 °F /  6 °C 29.9in /  1012.2hPa Calm     91% 0in /  0.0mm 0 W/m2
19:45 45.3 °F /  7.4 °C 43.2 °F /  6.2 °C 29.9in /  1012.2hPa Calm     92% 0in /  0.0mm 0 W/m2
19:50 45.1 °F /  7.3 °C 43 °F /  6.1 °C 29.9in /  1011.9hPa Calm     92% 0in /  0.0mm 0 W/m2
19:55 45.1 °F /  7.3 °C 43 °F /  6.1 °C 29.9in /  1011.9hPa Calm     92% 0in /  0.0mm 0 W/m2
20:00 45.1 °F /  7.3 °C 43 °F /  6.1 °C 29.9in /  1011.9hPa Calm     92% 0in /  0.0mm 0 W/m2
20:05 45 °F /  7.2 °C 42.8 °F /  6 °C 29.9in /  1011.9hPa Calm     92% 0in /  0.0mm 0 W/m2
20:10 45 °F /  7.2 °C 43 °F /  6.1 °C 29.9in /  1011.9hPa Calm     93% 0in /  0.0mm 0 W/m2
20:15 45 °F /  7.2 °C 43 °F /  6.1 °C 29.9in /  1011.9hPa Calm     93% 0in /  0.0mm 0 W/m2
20:20 45 °F /  7.2 °C 43 °F /  6.1 °C 29.9in /  1011.9hPa Calm     93% 0in /  0.0mm 0 W/m2
20:25 45 °F /  7.2 °C 43 °F /  6.1 °C 29.9in /  1011.9hPa Calm     93% 0in /  0.0mm 0 W/m2
20:30 44.8 °F /  7.1 °C 42.8 °F /  6 °C 29.9in /  1011.9hPa Calm     93% 0in /  0.0mm 0 W/m2
20:35 44.8 °F /  7.1 °C 42.8 °F /  6 °C 29.9in /  1011.9hPa Calm     93% 0in /  0.0mm 0 W/m2
20:40 44.8 °F /  7.1 °C 42.8 °F /  6 °C 29.9in /  1011.9hPa Calm     93% 0in /  0.0mm 0 W/m2
20:45 44.8 °F /  7.1 °C 42.8 °F /  6 °C 29.9in /  1011.9hPa Calm     93% 0in /  0.0mm 0 W/m2
20:50 44.8 °F /  7.1 °C 43.2 °F /  6.2 °C 29.9in /  1011.9hPa Calm     94% 0in /  0.0mm 0 W/m2
20:55 45 °F /  7.2 °C 43.3 °F /  6.3 °C 29.9in /  1011.9hPa Calm     94% 0in /  0.0mm 0 W/m2
21:00 45 °F /  7.2 °C 43.3 °F /  6.3 °C 29.9in /  1011.9hPa Calm     94% 0in /  0.0mm 0 W/m2
21:05 45 °F /  7.2 °C 43.3 °F /  6.3 °C 29.9in /  1011.9hPa Calm     94% 0in /  0.0mm 0 W/m2
21:11 45 °F /  7.2 °C 43.3 °F /  6.3 °C 29.9in /  1011.9hPa Calm     94% 0in /  0.0mm 0 W/m2
21:16 45 °F /  7.2 °C 43.3 °F /  6.3 °C 29.9in /  1011.9hPa Calm     94% 0in /  0.0mm 0 W/m2
21:21 45 °F /  7.2 °C 43.3 °F /  6.3 °C 29.9in /  1011.9hPa Calm     94% 0in /  0.0mm 0 W/m2
21:26 45 °F /  7.2 °C 43.3 °F /  6.3 °C 29.9in /  1011.5hPa Calm     94% 0in /  0.0mm 0 W/m2
21:31 45 °F /  7.2 °C 43.3 °F /  6.3 °C 29.9in /  1011.5hPa Calm     94% 0in /  0.0mm 0 W/m2
21:36 45 °F /  7.2 °C 43.3 °F /  6.3 °C 29.9in /  1011.5hPa Calm     94% 0in /  0.0mm 0 W/m2
21:41 44.8 °F /  7.1 °C 43.2 °F /  6.2 °C 29.9in /  1011.5hPa Calm     94% 0in /  0.0mm 0 W/m2
21:46 44.8 °F /  7.1 °C 43.2 °F /  6.2 °C 29.9in /  1011.5hPa Calm     94% 0in /  0.0mm 0 W/m2
21:51 44.8 °F /  7.1 °C 43.2 °F /  6.2 °C 29.9in /  1011.5hPa Calm     94% 0in /  0.0mm 0 W/m2
21:56 44.6 °F /  7 °C 43 °F /  6.1 °C 29.9in /  1011.5hPa Calm     94% 0in /  0.0mm 0 W/m2
22:01 44.6 °F /  7 °C 43 °F /  6.1 °C 29.9in /  1011.5hPa Calm     94% 0in /  0.0mm 0 W/m2
22:06 44.4 °F /  6.9 °C 42.8 °F /  6 °C 29.9in /  1011.5hPa Calm     94% 0in /  0.0mm 0 W/m2
22:11 44.4 °F /  6.9 °C 42.8 °F /  6 °C 29.9in /  1011.5hPa Calm     94% 0in /  0.0mm 0 W/m2
22:16 44.2 °F /  6.8 °C 42.6 °F /  5.9 °C 29.9in /  1011.5hPa Calm     94% 0in /  0.0mm 0 W/m2
22:21 44.2 °F /  6.8 °C 42.6 °F /  5.9 °C 29.9in /  1011.2hPa Calm     94% 0in /  0.0mm 0 W/m2
22:26 44.1 °F /  6.7 °C 42.4 °F /  5.8 °C 29.9in /  1011.5hPa Calm     94% 0in /  0.0mm 0 W/m2
22:31 44.1 °F /  6.7 °C 42.4 °F /  5.8 °C 29.9in /  1011.5hPa Calm     94% 0in /  0.0mm 0 W/m2
22:36 43.9 °F /  6.6 °C 42.3 °F /  5.7 °C 29.9in /  1011.2hPa Calm     94% 0in /  0.0mm 0 W/m2
22:41 43.9 °F /  6.6 °C 42.3 °F /  5.7 °C 29.9in /  1011.2hPa Calm     94% 0in /  0.0mm 0 W/m2
22:46 43.7 °F /  6.5 °C 42.1 °F /  5.6 °C 29.9in /  1011.2hPa Calm     94% 0in /  0.0mm 0 W/m2
22:51 43.7 °F /  6.5 °C 42.1 °F /  5.6 °C 29.9in /  1011.2hPa Calm     94% 0in /  0.0mm 0 W/m2
22:56 43.5 °F /  6.4 °C 41.9 °F /  5.5 °C 29.9in /  1011.2hPa Calm     94% 0in /  0.0mm 0 W/m2
23:01 43.5 °F /  6.4 °C 41.9 °F /  5.5 °C 29.9in /  1011.2hPa Calm     94% 0in /  0.0mm 0 W/m2
23:06 43.5 °F /  6.4 °C 41.9 °F /  5.5 °C 29.9in /  1011.2hPa Calm     94% 0in /  0.0mm 0 W/m2
23:11 43.5 °F /  6.4 °C 41.9 °F /  5.5 °C 29.9in /  1011.2hPa Calm   1mph /  1.6km/h 94% 0in /  0.0mm 0 W/m2
23:16 43.7 °F /  6.5 °C 42.1 °F /  5.6 °C 29.9in /  1011.2hPa Calm   1mph /  1.6km/h 94% 0in /  0.0mm 0 W/m2
23:21 43.7 °F /  6.5 °C 42.1 °F /  5.6 °C 29.9in /  1011.2hPa Calm     94% 0in /  0.0mm 0 W/m2
23:26 43.5 °F /  6.4 °C 41.9 °F /  5.5 °C 29.9in /  1011.2hPa Calm   1mph /  1.6km/h 94% 0in /  0.0mm 0 W/m2
23:31 43.5 °F /  6.4 °C 41.9 °F /  5.5 °C 29.9in /  1011.2hPa Calm     94% 0in /  0.0mm 0 W/m2
23:36 43.5 °F /  6.4 °C 41.9 °F /  5.5 °C 29.9in /  1011.2hPa Calm     94% 0in /  0.0mm 0 W/m2
23:41 43.3 °F /  6.3 °C 41.7 °F /  5.4 °C 29.9in /  1011.2hPa Calm     94% 0in /  0.0mm 0 W/m2
23:46 43.3 °F /  6.3 °C 41.7 °F /  5.4 °C 29.9in /  1011.2hPa Calm     94% 0in /  0.0mm 0 W/m2
23:51 43.2 °F /  6.2 °C 41.5 °F /  5.3 °C 29.9in /  1011.2hPa Calm     94% 0in /  0.0mm 0 W/m2
23:56 43 °F /  6.1 °C 41.4 °F /  5.2 °C 29.9in /  1011.2hPa Calm     94% 0in /  0.0mm 0 W/m2
Juneau County Weather
Compliments of Weather Underground - 4 mb